Port Hedland Bedout Island, Australia
Current Conditions -  °F | °C
As of 3:30 PM on Thursday 23 Oct 2014 (Local Time) from YPPD Reporting Station
Clear Clear  
Wind Chill: 99°   Ceiling: Unl
Heat Index: 99°   Visibility: 6mi
Dew Point: 52°   Wind: 23mph
Humidity: 21%   Direction: 300°WNW
Pressure: 29.77"   Gusts: NA
Location:  19.58°S, 119.1°E
Report Text: YPPD 230730Z AUTO 30020KT 9999 // NCD 37/11 Q1008
Loading
Personal Weather Stations






























Interactive Weather Map
Tropical Storm Tracking
New forecast layout! Learn more

10-Day Weather Forecast

Advertisements
Track Severe Weather on mobile